sensor_id;sensor_type;location;lat;lon;timestamp;P1;durP1;ratioP1;P2;durP2;ratioP2
64641;SDS011;59936;51.490;5.436;2022-12-29T00:04:09;234.20;;;213.45;;
64641;SDS011;59936;51.490;5.436;2022-12-29T00:09:16;340.10;;;304.13;;
64641;SDS011;59936;51.490;5.436;2022-12-29T00:14:19;226.63;;;206.13;;
64641;SDS011;59936;51.490;5.436;2022-12-29T00:19:41;162.10;;;150.60;;
64641;SDS011;59936;51.490;5.436;2022-12-29T00:25:02;203.93;;;189.02;;
64641;SDS011;59936;51.490;5.436;2022-12-29T00:30:22;148.32;;;138.63;;
64641;SDS011;59936;51.490;5.436;2022-12-29T00:35:43;42.85;;;40.85;;
64641;SDS011;59936;51.490;5.436;2022-12-29T00:40:50;64.13;;;61.05;;
64641;SDS011;59936;51.490;5.436;2022-12-29T00:46:09;81.00;;;76.30;;
64641;SDS011;59936;51.490;5.436;2022-12-29T00:51:11;118.47;;;111.38;;
64641;SDS011;59936;51.490;5.436;2022-12-29T00:56:14;61.47;;;58.10;;
64641;SDS011;59936;51.490;5.436;2022-12-29T01:01:15;256.48;;;235.05;;
64641;SDS011;59936;51.490;5.436;2022-12-29T01:06:17;92.07;;;87.28;;
64641;SDS011;59936;51.490;5.436;2022-12-29T01:11:20;67.80;;;64.47;;
64641;SDS011;59936;51.490;5.436;2022-12-29T01:16:22;107.43;;;99.07;;
64641;SDS011;59936;51.490;5.436;2022-12-29T01:21:24;50.88;;;48.15;;
64641;SDS011;59936;51.490;5.436;2022-12-29T01:26:28;108.95;;;102.43;;
64641;SDS011;59936;51.490;5.436;2022-12-29T01:31:29;146.27;;;133.75;;
64641;SDS011;59936;51.490;5.436;2022-12-29T01:36:31;133.43;;;122.90;;
64641;SDS011;59936;51.490;5.436;2022-12-29T01:41:35;336.63;;;268.95;;
64641;SDS011;59936;51.490;5.436;2022-12-29T01:46:37;172.32;;;158.52;;
64641;SDS011;59936;51.490;5.436;2022-12-29T01:51:43;160.70;;;150.45;;
64641;SDS011;59936;51.490;5.436;2022-12-29T01:56:51;89.38;;;85.07;;
64641;SDS011;59936;51.490;5.436;2022-12-29T02:01:57;169.25;;;160.20;;
64641;SDS011;59936;51.490;5.436;2022-12-29T02:07:01;199.82;;;185.52;;
64641;SDS011;59936;51.490;5.436;2022-12-29T02:12:11;161.98;;;153.57;;
64641;SDS011;59936;51.490;5.436;2022-12-29T02:17:16;180.48;;;168.75;;
64641;SDS011;59936;51.490;5.436;2022-12-29T02:22:39;266.73;;;246.52;;
64641;SDS011;59936;51.490;5.436;2022-12-29T02:28:11;226.35;;;212.00;;
64641;SDS011;59936;51.490;5.436;2022-12-29T02:33:46;316.08;;;291.35;;
64641;SDS011;59936;51.490;5.436;2022-12-29T02:39:05;250.48;;;234.55;;
64641;SDS011;59936;51.490;5.436;2022-12-29T02:44:23;121.18;;;114.90;;
64641;SDS011;59936;51.490;5.436;2022-12-29T02:49:36;145.13;;;137.57;;
64641;SDS011;59936;51.490;5.436;2022-12-29T02:54:48;155.55;;;145.68;;
64641;SDS011;59936;51.490;5.436;2022-12-29T02:59:52;83.32;;;79.40;;
64641;SDS011;59936;51.490;5.436;2022-12-29T03:05:06;287.05;;;268.42;;
64641;SDS011;59936;51.490;5.436;2022-12-29T03:15:39;109.57;;;102.43;;
64641;SDS011;59936;51.490;5.436;2022-12-29T03:21:05;133.88;;;124.28;;
64641;SDS011;59936;51.490;5.436;2022-12-29T03:26:13;281.55;;;265.20;;
64641;SDS011;59936;51.490;5.436;2022-12-29T03:31:19;212.02;;;197.13;;
64641;SDS011;59936;51.490;5.436;2022-12-29T03:36:30;217.05;;;204.77;;
64641;SDS011;59936;51.490;5.436;2022-12-29T03:41:40;174.77;;;158.55;;
64641;SDS011;59936;51.490;5.436;2022-12-29T03:46:46;210.27;;;198.38;;
64641;SDS011;59936;51.490;5.436;2022-12-29T03:51:49;389.00;;;354.42;;
64641;SDS011;59936;51.490;5.436;2022-12-29T03:56:51;329.58;;;302.60;;
64641;SDS011;59936;51.490;5.436;2022-12-29T04:01:52;400.10;;;359.48;;
64641;SDS011;59936;51.490;5.436;2022-12-29T04:11:57;146.07;;;136.48;;
64641;SDS011;59936;51.490;5.436;2022-12-29T04:16:59;255.30;;;229.90;;
64641;SDS011;59936;51.490;5.436;2022-12-29T04:22:02;1999.90;;;999.90;;
64641;SDS011;59936;51.490;5.436;2022-12-29T04:27:04;149.55;;;140.60;;
64641;SDS011;59936;51.490;5.436;2022-12-29T04:32:06;168.77;;;158.55;;
64641;SDS011;59936;51.490;5.436;2022-12-29T04:37:09;171.30;;;160.85;;
64641;SDS011;59936;51.490;5.436;2022-12-29T04:42:11;1138.60;;;616.90;;
64641;SDS011;59936;51.490;5.436;2022-12-29T04:47:12;187.68;;;174.20;;
64641;SDS011;59936;51.490;5.436;2022-12-29T04:52:16;273.60;;;224.13;;
64641;SDS011;59936;51.490;5.436;2022-12-29T04:57:18;281.38;;;255.30;;
64641;SDS011;59936;51.490;5.436;2022-12-29T05:02:20;270.50;;;224.20;;
64641;SDS011;59936;51.490;5.436;2022-12-29T05:07:23;1535.03;;;782.97;;
64641;SDS011;59936;51.490;5.436;2022-12-29T05:12:28;179.15;;;166.45;;
64641;SDS011;59936;51.490;5.436;2022-12-29T05:17:31;137.07;;;129.48;;
64641;SDS011;59936;51.490;5.436;2022-12-29T05:22:35;138.07;;;130.88;;
64641;SDS011;59936;51.490;5.436;2022-12-29T05:27:37;134.15;;;125.05;;
64641;SDS011;59936;51.490;5.436;2022-12-29T05:32:38;168.18;;;155.75;;
64641;SDS011;59936;51.490;5.436;2022-12-29T05:37:41;1139.07;;;627.88;;
64641;SDS011;59936;51.490;5.436;2022-12-29T05:42:44;277.05;;;253.48;;
64641;SDS011;59936;51.490;5.436;2022-12-29T05:47:46;248.48;;;230.95;;
64641;SDS011;59936;51.490;5.436;2022-12-29T05:52:49;196.80;;;183.45;;
64641;SDS011;59936;51.490;5.436;2022-12-29T05:57:51;297.10;;;273.63;;
64641;SDS011;59936;51.490;5.436;2022-12-29T06:02:52;183.13;;;171.43;;
64641;SDS011;59936;51.490;5.436;2022-12-29T06:07:55;199.27;;;188.27;;
64641;SDS011;59936;51.490;5.436;2022-12-29T06:12:57;109.75;;;104.43;;
64641;SDS011;59936;51.490;5.436;2022-12-29T06:17:59;141.48;;;134.25;;
64641;SDS011;59936;51.490;5.436;2022-12-29T06:23:04;260.00;;;243.38;;
64641;SDS011;59936;51.490;5.436;2022-12-29T06:28:05;154.07;;;139.65;;
64641;SDS011;59936;51.490;5.436;2022-12-29T06:33:07;125.45;;;118.63;;
64641;SDS011;59936;51.490;5.436;2022-12-29T06:38:10;325.20;;;301.00;;
64641;SDS011;59936;51.490;5.436;2022-12-29T06:43:12;346.90;;;316.20;;
64641;SDS011;59936;51.490;5.436;2022-12-29T06:48:14;304.80;;;282.38;;
64641;SDS011;59936;51.490;5.436;2022-12-29T06:53:17;227.68;;;209.75;;
64641;SDS011;59936;51.490;5.436;2022-12-29T06:58:18;244.18;;;226.80;;
64641;SDS011;59936;51.490;5.436;2022-12-29T07:03:20;171.23;;;161.38;;
64641;SDS011;59936;51.490;5.436;2022-12-29T07:08:23;184.93;;;173.48;;
64641;SDS011;59936;51.490;5.436;2022-12-29T07:13:25;109.63;;;103.72;;
64641;SDS011;59936;51.490;5.436;2022-12-29T07:18:27;329.52;;;297.20;;
64641;SDS011;59936;51.490;5.436;2022-12-29T07:23:30;232.32;;;214.27;;
64641;SDS011;59936;51.490;5.436;2022-12-29T07:28:31;678.58;;;416.27;;
64641;SDS011;59936;51.490;5.436;2022-12-29T07:33:35;264.25;;;235.23;;
64641;SDS011;59936;51.490;5.436;2022-12-29T07:38:38;234.82;;;212.02;;
64641;SDS011;59936;51.490;5.436;2022-12-29T07:43:40;355.10;;;328.83;;
64641;SDS011;59936;51.490;5.436;2022-12-29T07:48:41;366.98;;;310.85;;
64641;SDS011;59936;51.490;5.436;2022-12-29T07:53:44;193.73;;;181.63;;
64641;SDS011;59936;51.490;5.436;2022-12-29T07:58:46;98.85;;;93.45;;
64641;SDS011;59936;51.490;5.436;2022-12-29T08:03:48;303.00;;;271.58;;
64641;SDS011;59936;51.490;5.436;2022-12-29T08:13:53;248.68;;;230.00;;
64641;SDS011;59936;51.490;5.436;2022-12-29T08:18:54;141.02;;;132.70;;
64641;SDS011;59936;51.490;5.436;2022-12-29T08:23:58;387.75;;;356.60;;
64641;SDS011;59936;51.490;5.436;2022-12-29T08:29:00;825.15;;;550.53;;
64641;SDS011;59936;51.490;5.436;2022-12-29T08:34:02;298.90;;;270.83;;
64641;SDS011;59936;51.490;5.436;2022-12-29T08:39:06;188.00;;;175.85;;
64641;SDS011;59936;51.490;5.436;2022-12-29T08:44:07;141.73;;;134.50;;
64641;SDS011;59936;51.490;5.436;2022-12-29T08:54:12;55.87;;;52.60;;
64641;SDS011;59936;51.490;5.436;2022-12-29T08:59:14;360.70;;;313.05;;
64641;SDS011;59936;51.490;5.436;2022-12-29T09:04:16;541.42;;;362.65;;
64641;SDS011;59936;51.490;5.436;2022-12-29T09:09:19;235.55;;;217.70;;
64641;SDS011;59936;51.490;5.436;2022-12-29T09:14:20;307.15;;;281.65;;
64641;SDS011;59936;51.490;5.436;2022-12-29T09:19:22;31.98;;;29.83;;
64641;SDS011;59936;51.490;5.436;2022-12-29T09:24:25;38.28;;;35.10;;
64641;SDS011;59936;51.490;5.436;2022-12-29T09:29:27;46.38;;;42.80;;
64641;SDS011;59936;51.490;5.436;2022-12-29T09:34:29;129.27;;;113.07;;
64641;SDS011;59936;51.490;5.436;2022-12-29T09:39:32;77.22;;;64.03;;
64641;SDS011;59936;51.490;5.436;2022-12-29T09:44:39;17.83;;;16.40;;
64641;SDS011;59936;51.490;5.436;2022-12-29T09:49:53;21.52;;;19.88;;
64641;SDS011;59936;51.490;5.436;2022-12-29T09:55:02;14.93;;;13.75;;
64641;SDS011;59936;51.490;5.436;2022-12-29T10:00:11;11.85;;;10.82;;
64641;SDS011;59936;51.490;5.436;2022-12-29T10:05:20;65.80;;;49.42;;
64641;SDS011;59936;51.490;5.436;2022-12-29T10:10:36;792.20;;;515.80;;
64641;SDS011;59936;51.490;5.436;2022-12-29T10:15:47;232.63;;;220.10;;
64641;SDS011;59936;51.490;5.436;2022-12-29T10:21:04;264.67;;;244.50;;
64641;SDS011;59936;51.490;5.436;2022-12-29T10:26:20;737.08;;;469.15;;
64641;SDS011;59936;51.490;5.436;2022-12-29T10:31:28;1999.90;;;999.90;;
64641;SDS011;59936;51.490;5.436;2022-12-29T10:36:39;1106.47;;;598.42;;
64641;SDS011;59936;51.490;5.436;2022-12-29T10:41:51;727.97;;;454.77;;
64641;SDS011;59936;51.490;5.436;2022-12-29T10:47:02;300.42;;;275.13;;
64641;SDS011;59936;51.490;5.436;2022-12-29T10:52:10;1999.90;;;999.90;;
64641;SDS011;59936;51.490;5.436;2022-12-29T10:57:18;1999.90;;;999.90;;
64641;SDS011;59936;51.490;5.436;2022-12-29T11:02:43;640.65;;;380.33;;
64641;SDS011;59936;51.490;5.436;2022-12-29T11:08:10;1999.90;;;999.90;;
64641;SDS011;59936;51.490;5.436;2022-12-29T11:13:24;1999.90;;;999.90;;
64641;SDS011;59936;51.490;5.436;2022-12-29T11:18:31;1999.90;;;999.90;;
64641;SDS011;59936;51.490;5.436;2022-12-29T11:23:40;1074.38;;;567.45;;
64641;SDS011;59936;51.490;5.436;2022-12-29T11:28:44;249.65;;;232.55;;
64641;SDS011;59936;51.490;5.436;2022-12-29T11:34:05;168.50;;;157.95;;
64641;SDS011;59936;51.490;5.436;2022-12-29T11:39:16;642.58;;;382.42;;
64641;SDS011;59936;51.490;5.436;2022-12-29T11:44:36;716.70;;;449.42;;
64641;SDS011;59936;51.490;5.436;2022-12-29T11:49:48;1999.90;;;999.90;;
64641;SDS011;59936;51.490;5.436;2022-12-29T11:54:52;1094.22;;;586.97;;
64641;SDS011;59936;51.490;5.436;2022-12-29T11:59:58;230.93;;;215.65;;
64641;SDS011;59936;51.490;5.436;2022-12-29T12:05:08;1999.90;;;999.90;;
64641;SDS011;59936;51.490;5.436;2022-12-29T12:10:19;1120.70;;;609.05;;
64641;SDS011;59936;51.490;5.436;2022-12-29T12:15:31;1096.05;;;590.38;;
64641;SDS011;59936;51.490;5.436;2022-12-29T12:20:42;1999.90;;;999.90;;
64641;SDS011;59936;51.490;5.436;2022-12-29T12:25:53;699.00;;;435.80;;
64641;SDS011;59936;51.490;5.436;2022-12-29T12:31:06;166.13;;;154.90;;
64641;SDS011;59936;51.490;5.436;2022-12-29T12:36:27;1999.90;;;999.90;;
64641;SDS011;59936;51.490;5.436;2022-12-29T12:42:02;698.95;;;431.50;;
64641;SDS011;59936;51.490;5.436;2022-12-29T12:58:33;400.77;;;365.40;;
64641;SDS011;59936;51.490;5.436;2022-12-29T13:03:47;626.88;;;370.13;;
64641;SDS011;59936;51.490;5.436;2022-12-29T13:09:11;1999.90;;;999.90;;
64641;SDS011;59936;51.490;5.436;2022-12-29T13:14:34;1999.90;;;999.90;;
64641;SDS011;59936;51.490;5.436;2022-12-29T13:19:55;1999.90;;;999.90;;
64641;SDS011;59936;51.490;5.436;2022-12-29T13:25:18;1999.90;;;999.90;;
64641;SDS011;59936;51.490;5.436;2022-12-29T13:30:33;625.20;;;368.35;;
64641;SDS011;59936;51.490;5.436;2022-12-29T13:35:52;63.58;;;59.60;;
64641;SDS011;59936;51.490;5.436;2022-12-29T13:41:02;133.38;;;126.20;;
64641;SDS011;59936;51.490;5.436;2022-12-29T13:46:15;86.70;;;81.18;;
64641;SDS011;59936;51.490;5.436;2022-12-29T13:51:26;108.20;;;100.82;;
64641;SDS011;59936;51.490;5.436;2022-12-29T13:56:31;74.78;;;70.93;;
64641;SDS011;59936;51.490;5.436;2022-12-29T14:01:42;116.00;;;108.43;;
64641;SDS011;59936;51.490;5.436;2022-12-29T14:07:02;67.00;;;63.42;;
64641;SDS011;59936;51.490;5.436;2022-12-29T14:12:18;75.22;;;71.50;;
64641;SDS011;59936;51.490;5.436;2022-12-29T14:17:37;68.30;;;64.40;;
64641;SDS011;59936;51.490;5.436;2022-12-29T14:22:45;147.15;;;137.07;;
64641;SDS011;59936;51.490;5.436;2022-12-29T14:27:59;147.80;;;139.50;;
64641;SDS011;59936;51.490;5.436;2022-12-29T14:33:17;92.40;;;87.85;;
64641;SDS011;59936;51.490;5.436;2022-12-29T14:38:24;1999.90;;;999.90;;
64641;SDS011;59936;51.490;5.436;2022-12-29T14:43:29;1999.90;;;999.90;;
64641;SDS011;59936;51.490;5.436;2022-12-29T14:48:35;1999.90;;;999.90;;
64641;SDS011;59936;51.490;5.436;2022-12-29T14:53:45;1999.90;;;999.90;;
64641;SDS011;59936;51.490;5.436;2022-12-29T14:58:51;1999.90;;;999.90;;
64641;SDS011;59936;51.490;5.436;2022-12-29T15:03:57;1999.90;;;999.90;;
64641;SDS011;59936;51.490;5.436;2022-12-29T15:09:06;1999.90;;;999.90;;
64641;SDS011;59936;51.490;5.436;2022-12-29T15:14:30;1999.90;;;999.90;;
64641;SDS011;59936;51.490;5.436;2022-12-29T15:19:35;1999.90;;;999.90;;
64641;SDS011;59936;51.490;5.436;2022-12-29T15:24:42;1999.90;;;999.90;;
64641;SDS011;59936;51.490;5.436;2022-12-29T15:29:44;1035.75;;;533.22;;
64641;SDS011;59936;51.490;5.436;2022-12-29T15:34:48;1999.90;;;999.90;;
64641;SDS011;59936;51.490;5.436;2022-12-29T15:39:55;1999.90;;;999.90;;
64641;SDS011;59936;51.490;5.436;2022-12-29T15:44:57;1999.90;;;999.90;;
64641;SDS011;59936;51.490;5.436;2022-12-29T15:50:01;1999.90;;;999.90;;
64641;SDS011;59936;51.490;5.436;2022-12-29T15:55:11;1999.90;;;999.90;;
64641;SDS011;59936;51.490;5.436;2022-12-29T16:00:26;1999.90;;;999.90;;
64641;SDS011;59936;51.490;5.436;2022-12-29T16:05:33;1999.90;;;999.90;;
64641;SDS011;59936;51.490;5.436;2022-12-29T16:10:39;1999.90;;;999.90;;
64641;SDS011;59936;51.490;5.436;2022-12-29T16:15:45;1999.90;;;999.90;;
64641;SDS011;59936;51.490;5.436;2022-12-29T16:20:48;124.93;;;116.65;;
64641;SDS011;59936;51.490;5.436;2022-12-29T16:25:51;135.38;;;126.30;;
64641;SDS011;59936;51.490;5.436;2022-12-29T16:30:58;1999.90;;;999.90;;
64641;SDS011;59936;51.490;5.436;2022-12-29T16:41:29;1999.90;;;999.90;;
64641;SDS011;59936;51.490;5.436;2022-12-29T16:46:32;1999.90;;;999.90;;
64641;SDS011;59936;51.490;5.436;2022-12-29T16:51:34;154.85;;;141.13;;
64641;SDS011;59936;51.490;5.436;2022-12-29T16:56:40;675.30;;;411.23;;
64641;SDS011;59936;51.490;5.436;2022-12-29T17:01:46;139.55;;;130.98;;
64641;SDS011;59936;51.490;5.436;2022-12-29T17:06:47;275.30;;;253.20;;
64641;SDS011;59936;51.490;5.436;2022-12-29T17:11:51;170.98;;;161.00;;
64641;SDS011;59936;51.490;5.436;2022-12-29T17:16:57;1999.90;;;999.90;;
64641;SDS011;59936;51.490;5.436;2022-12-29T17:22:00;1999.90;;;999.90;;
64641;SDS011;59936;51.490;5.436;2022-12-29T17:27:04;1551.88;;;798.65;;
64641;SDS011;59936;51.490;5.436;2022-12-29T17:32:06;1999.90;;;999.90;;
64641;SDS011;59936;51.490;5.436;2022-12-29T17:37:25;1999.90;;;999.90;;
64641;SDS011;59936;51.490;5.436;2022-12-29T17:42:34;1999.90;;;999.90;;
64641;SDS011;59936;51.490;5.436;2022-12-29T17:47:42;1999.90;;;999.90;;
64641;SDS011;59936;51.490;5.436;2022-12-29T17:52:45;166.68;;;154.43;;
64641;SDS011;59936;51.490;5.436;2022-12-29T17:57:53;210.18;;;197.85;;
64641;SDS011;59936;51.490;5.436;2022-12-29T18:02:55;657.75;;;396.67;;
64641;SDS011;59936;51.490;5.436;2022-12-29T18:07:59;180.43;;;169.50;;
64641;SDS011;59936;51.490;5.436;2022-12-29T18:13:02;1112.63;;;605.42;;
64641;SDS011;59936;51.490;5.436;2022-12-29T18:18:08;1999.90;;;999.90;;
64641;SDS011;59936;51.490;5.436;2022-12-29T18:23:14;1548.65;;;794.53;;
64641;SDS011;59936;51.490;5.436;2022-12-29T18:28:23;171.60;;;161.18;;
64641;SDS011;59936;51.490;5.436;2022-12-29T18:33:26;1999.90;;;999.90;;
64641;SDS011;59936;51.490;5.436;2022-12-29T18:38:29;701.28;;;429.38;;
64641;SDS011;59936;51.490;5.436;2022-12-29T18:43:33;1999.90;;;999.90;;
64641;SDS011;59936;51.490;5.436;2022-12-29T18:48:34;1999.90;;;999.90;;
64641;SDS011;59936;51.490;5.436;2022-12-29T18:58:39;1999.90;;;999.90;;
64641;SDS011;59936;51.490;5.436;2022-12-29T19:03:42;1550.32;;;797.05;;
64641;SDS011;59936;51.490;5.436;2022-12-29T19:08:43;1073.80;;;569.42;;
64641;SDS011;59936;51.490;5.436;2022-12-29T19:13:46;189.73;;;176.48;;
64641;SDS011;59936;51.490;5.436;2022-12-29T19:18:48;217.00;;;199.48;;
64641;SDS011;59936;51.490;5.436;2022-12-29T19:23:52;1999.90;;;999.90;;
64641;SDS011;59936;51.490;5.436;2022-12-29T19:28:56;179.23;;;164.10;;
64641;SDS011;59936;51.490;5.436;2022-12-29T19:34:00;679.70;;;416.90;;
64641;SDS011;59936;51.490;5.436;2022-12-29T19:39:02;1106.85;;;601.03;;
64641;SDS011;59936;51.490;5.436;2022-12-29T19:44:06;1531.10;;;779.45;;
64641;SDS011;59936;51.490;5.436;2022-12-29T19:49:09;1999.90;;;999.90;;
64641;SDS011;59936;51.490;5.436;2022-12-29T19:54:12;1123.90;;;614.15;;
64641;SDS011;59936;51.490;5.436;2022-12-29T19:59:15;1550.75;;;797.78;;
64641;SDS011;59936;51.490;5.436;2022-12-29T20:04:17;1999.90;;;999.90;;
64641;SDS011;59936;51.490;5.436;2022-12-29T20:09:18;1542.05;;;789.20;;
64641;SDS011;59936;51.490;5.436;2022-12-29T20:14:21;1120.97;;;607.20;;
64641;SDS011;59936;51.490;5.436;2022-12-29T20:19:23;1999.90;;;999.90;;
64641;SDS011;59936;51.490;5.436;2022-12-29T20:24:25;1112.50;;;596.17;;
64641;SDS011;59936;51.490;5.436;2022-12-29T20:29:30;1277.40;;;622.30;;
64641;SDS011;59936;51.490;5.436;2022-12-29T20:34:37;302.13;;;276.90;;
64641;SDS011;59936;51.490;5.436;2022-12-29T20:39:41;1999.90;;;999.90;;
64641;SDS011;59936;51.490;5.436;2022-12-29T20:44:45;1126.43;;;614.95;;
64641;SDS011;59936;51.490;5.436;2022-12-29T20:49:49;1999.90;;;999.90;;
64641;SDS011;59936;51.490;5.436;2022-12-29T20:54:50;182.77;;;167.55;;
64641;SDS011;59936;51.490;5.436;2022-12-29T20:59:54;207.07;;;194.25;;
64641;SDS011;59936;51.490;5.436;2022-12-29T21:04:55;40.08;;;37.45;;
64641;SDS011;59936;51.490;5.436;2022-12-29T21:09:57;70.32;;;64.00;;
64641;SDS011;59936;51.490;5.436;2022-12-29T21:15:00;68.03;;;63.35;;
64641;SDS011;59936;51.490;5.436;2022-12-29T21:20:02;137.27;;;124.00;;
64641;SDS011;59936;51.490;5.436;2022-12-29T21:25:04;36.33;;;33.63;;
64641;SDS011;59936;51.490;5.436;2022-12-29T21:30:09;174.82;;;146.25;;
64641;SDS011;59936;51.490;5.436;2022-12-29T21:35:12;202.80;;;184.93;;
64641;SDS011;59936;51.490;5.436;2022-12-29T21:40:14;241.88;;;223.15;;
64641;SDS011;59936;51.490;5.436;2022-12-29T21:45:17;38.15;;;35.83;;
64641;SDS011;59936;51.490;5.436;2022-12-29T21:50:25;97.72;;;91.20;;
64641;SDS011;59936;51.490;5.436;2022-12-29T21:55:26;136.35;;;127.05;;
64641;SDS011;59936;51.490;5.436;2022-12-29T22:00:29;111.20;;;100.82;;
64641;SDS011;59936;51.490;5.436;2022-12-29T22:05:49;76.50;;;69.75;;
64641;SDS011;59936;51.490;5.436;2022-12-29T22:11:08;111.60;;;101.78;;
64641;SDS011;59936;51.490;5.436;2022-12-29T22:16:29;122.72;;;115.25;;
64641;SDS011;59936;51.490;5.436;2022-12-29T22:21:31;94.97;;;88.97;;
64641;SDS011;59936;51.490;5.436;2022-12-29T22:26:32;117.78;;;110.78;;
64641;SDS011;59936;51.490;5.436;2022-12-29T22:31:36;149.82;;;137.60;;
64641;SDS011;59936;51.490;5.436;2022-12-29T22:36:37;94.15;;;87.05;;
64641;SDS011;59936;51.490;5.436;2022-12-29T22:41:39;83.00;;;78.30;;
64641;SDS011;59936;51.490;5.436;2022-12-29T22:46:43;61.95;;;58.42;;
64641;SDS011;59936;51.490;5.436;2022-12-29T22:51:45;219.68;;;206.98;;
64641;SDS011;59936;51.490;5.436;2022-12-29T22:56:47;171.43;;;159.32;;
64641;SDS011;59936;51.490;5.436;2022-12-29T23:01:50;373.27;;;192.00;;
64641;SDS011;59936;51.490;5.436;2022-12-29T23:06:52;90.82;;;84.72;;
64641;SDS011;59936;51.490;5.436;2022-12-29T23:11:53;95.47;;;87.78;;
64641;SDS011;59936;51.490;5.436;2022-12-29T23:16:56;63.05;;;59.03;;
64641;SDS011;59936;51.490;5.436;2022-12-29T23:21:58;44.17;;;41.55;;
64641;SDS011;59936;51.490;5.436;2022-12-29T23:27:00;77.13;;;71.35;;
64641;SDS011;59936;51.490;5.436;2022-12-29T23:32:03;52.05;;;48.65;;
64641;SDS011;59936;51.490;5.436;2022-12-29T23:37:05;54.33;;;51.13;;
64641;SDS011;59936;51.490;5.436;2022-12-29T23:42:06;57.10;;;53.70;;
64641;SDS011;59936;51.490;5.436;2022-12-29T23:47:11;56.70;;;53.50;;
64641;SDS011;59936;51.490;5.436;2022-12-29T23:52:13;49.67;;;47.00;;
64641;SDS011;59936;51.490;5.436;2022-12-29T23:57:16;54.50;;;51.50;;
